sensor_id;sensor_type;location;lat;lon;timestamp;P1;durP1;ratioP1;P2;durP2;ratioP2
32094;SDS011;18608;53.688;10.748;2022-11-20T00:00:53;8.53;;;5.57;;
32094;SDS011;18608;53.688;10.748;2022-11-20T00:03:19;15.80;;;5.70;;
32094;SDS011;18608;53.688;10.748;2022-11-20T00:05:44;12.80;;;5.87;;
32094;SDS011;18608;53.688;10.748;2022-11-20T00:08:10;8.50;;;5.80;;
32094;SDS011;18608;53.688;10.748;2022-11-20T00:10:36;12.23;;;6.10;;
32094;SDS011;18608;53.688;10.748;2022-11-20T00:13:02;9.03;;;6.17;;
32094;SDS011;18608;53.688;10.748;2022-11-20T00:15:29;8.23;;;6.57;;
32094;SDS011;18608;53.688;10.748;2022-11-20T00:17:54;6.53;;;5.73;;
32094;SDS011;18608;53.688;10.748;2022-11-20T00:20:20;10.97;;;7.10;;
32094;SDS011;18608;53.688;10.748;2022-11-20T00:22:46;11.73;;;6.13;;
32094;SDS011;18608;53.688;10.748;2022-11-20T00:25:11;9.83;;;6.57;;
32094;SDS011;18608;53.688;10.748;2022-11-20T00:27:37;11.30;;;6.53;;
32094;SDS011;18608;53.688;10.748;2022-11-20T00:30:04;9.30;;;6.30;;
32094;SDS011;18608;53.688;10.748;2022-11-20T00:32:30;7.80;;;6.23;;
32094;SDS011;18608;53.688;10.748;2022-11-20T00:34:56;10.40;;;5.90;;
32094;SDS011;18608;53.688;10.748;2022-11-20T00:37:21;16.43;;;7.20;;
32094;SDS011;18608;53.688;10.748;2022-11-20T00:39:47;10.20;;;6.23;;
32094;SDS011;18608;53.688;10.748;2022-11-20T00:42:13;11.77;;;7.40;;
32094;SDS011;18608;53.688;10.748;2022-11-20T00:44:38;9.90;;;6.83;;
32094;SDS011;18608;53.688;10.748;2022-11-20T00:47:04;8.73;;;6.13;;
32094;SDS011;18608;53.688;10.748;2022-11-20T00:49:30;10.57;;;7.40;;
32094;SDS011;18608;53.688;10.748;2022-11-20T00:51:55;13.03;;;7.13;;
32094;SDS011;18608;53.688;10.748;2022-11-20T00:54:21;10.00;;;7.00;;
32094;SDS011;18608;53.688;10.748;2022-11-20T00:56:47;17.67;;;8.53;;
32094;SDS011;18608;53.688;10.748;2022-11-20T00:59:12;8.93;;;7.17;;
32094;SDS011;18608;53.688;10.748;2022-11-20T01:01:38;11.00;;;7.70;;
32094;SDS011;18608;53.688;10.748;2022-11-20T01:04:04;9.30;;;7.27;;
32094;SDS011;18608;53.688;10.748;2022-11-20T01:06:31;10.00;;;7.10;;
32094;SDS011;18608;53.688;10.748;2022-11-20T01:09:03;11.53;;;6.70;;
32094;SDS011;18608;53.688;10.748;2022-11-20T01:11:32;10.97;;;7.37;;
32094;SDS011;18608;53.688;10.748;2022-11-20T01:14:00;8.83;;;6.20;;
32094;SDS011;18608;53.688;10.748;2022-11-20T01:16:34;7.50;;;6.00;;
32094;SDS011;18608;53.688;10.748;2022-11-20T01:19:03;10.83;;;6.50;;
32094;SDS011;18608;53.688;10.748;2022-11-20T01:21:35;10.30;;;7.20;;
32094;SDS011;18608;53.688;10.748;2022-11-20T01:24:02;12.77;;;6.30;;
32094;SDS011;18608;53.688;10.748;2022-11-20T01:26:30;11.30;;;7.13;;
32094;SDS011;18608;53.688;10.748;2022-11-20T01:28:57;10.60;;;8.10;;
32094;SDS011;18608;53.688;10.748;2022-11-20T01:31:26;11.43;;;7.40;;
32094;SDS011;18608;53.688;10.748;2022-11-20T01:34:00;12.57;;;6.50;;
32094;SDS011;18608;53.688;10.748;2022-11-20T01:36:31;11.63;;;6.20;;
32094;SDS011;18608;53.688;10.748;2022-11-20T01:38:59;11.93;;;7.53;;
32094;SDS011;18608;53.688;10.748;2022-11-20T01:41:28;10.57;;;7.17;;
32094;SDS011;18608;53.688;10.748;2022-11-20T01:44:14;10.47;;;5.90;;
32094;SDS011;18608;53.688;10.748;2022-11-20T01:46:48;9.93;;;7.07;;
32094;SDS011;18608;53.688;10.748;2022-11-20T01:49:29;10.47;;;7.27;;
32094;SDS011;18608;53.688;10.748;2022-11-20T01:52:07;10.47;;;8.03;;
32094;SDS011;18608;53.688;10.748;2022-11-20T01:54:43;9.30;;;7.20;;
32094;SDS011;18608;53.688;10.748;2022-11-20T01:57:15;14.37;;;7.20;;
32094;SDS011;18608;53.688;10.748;2022-11-20T01:59:44;13.57;;;7.40;;
32094;SDS011;18608;53.688;10.748;2022-11-20T02:02:19;11.83;;;7.37;;
32094;SDS011;18608;53.688;10.748;2022-11-20T02:04:46;9.37;;;7.20;;
32094;SDS011;18608;53.688;10.748;2022-11-20T02:07:14;18.03;;;7.90;;
32094;SDS011;18608;53.688;10.748;2022-11-20T02:09:40;14.87;;;8.50;;
32094;SDS011;18608;53.688;10.748;2022-11-20T02:12:06;9.50;;;6.87;;
32094;SDS011;18608;53.688;10.748;2022-11-20T02:14:52;7.70;;;5.77;;
32094;SDS011;18608;53.688;10.748;2022-11-20T02:17:17;9.40;;;7.67;;
32094;SDS011;18608;53.688;10.748;2022-11-20T02:19:43;11.73;;;7.20;;
32094;SDS011;18608;53.688;10.748;2022-11-20T02:22:13;8.17;;;6.60;;
32094;SDS011;18608;53.688;10.748;2022-11-20T02:24:44;12.23;;;7.33;;
32094;SDS011;18608;53.688;10.748;2022-11-20T02:27:13;11.73;;;6.90;;
32094;SDS011;18608;53.688;10.748;2022-11-20T02:34:52;9.37;;;6.80;;
32094;SDS011;18608;53.688;10.748;2022-11-20T02:37:19;12.80;;;6.90;;
32094;SDS011;18608;53.688;10.748;2022-11-20T02:39:54;14.70;;;8.30;;
32094;SDS011;18608;53.688;10.748;2022-11-20T02:42:20;10.67;;;7.60;;
32094;SDS011;18608;53.688;10.748;2022-11-20T02:44:45;9.53;;;6.30;;
32094;SDS011;18608;53.688;10.748;2022-11-20T02:47:11;8.80;;;6.67;;
32094;SDS011;18608;53.688;10.748;2022-11-20T02:49:37;13.07;;;7.13;;
32094;SDS011;18608;53.688;10.748;2022-11-20T02:52:02;9.53;;;6.40;;
32094;SDS011;18608;53.688;10.748;2022-11-20T02:54:28;11.40;;;7.80;;
32094;SDS011;18608;53.688;10.748;2022-11-20T02:56:54;13.63;;;8.20;;
32094;SDS011;18608;53.688;10.748;2022-11-20T02:59:19;11.73;;;6.60;;
32094;SDS011;18608;53.688;10.748;2022-11-20T03:01:45;11.13;;;8.27;;
32094;SDS011;18608;53.688;10.748;2022-11-20T03:04:11;15.40;;;8.47;;
32094;SDS011;18608;53.688;10.748;2022-11-20T03:06:37;10.90;;;7.97;;
32094;SDS011;18608;53.688;10.748;2022-11-20T03:09:03;13.20;;;8.40;;
32094;SDS011;18608;53.688;10.748;2022-11-20T03:11:28;13.17;;;7.10;;
32094;SDS011;18608;53.688;10.748;2022-11-20T03:13:54;10.87;;;7.33;;
32094;SDS011;18608;53.688;10.748;2022-11-20T03:16:21;11.03;;;7.50;;
32094;SDS011;18608;53.688;10.748;2022-11-20T03:18:48;10.90;;;6.70;;
32094;SDS011;18608;53.688;10.748;2022-11-20T03:21:15;8.30;;;6.13;;
32094;SDS011;18608;53.688;10.748;2022-11-20T03:23:41;13.60;;;8.30;;
32094;SDS011;18608;53.688;10.748;2022-11-20T03:26:12;11.57;;;8.13;;
32094;SDS011;18608;53.688;10.748;2022-11-20T03:28:41;10.20;;;7.20;;
32094;SDS011;18608;53.688;10.748;2022-11-20T03:31:11;12.07;;;7.83;;
32094;SDS011;18608;53.688;10.748;2022-11-20T03:33:39;10.60;;;7.77;;
32094;SDS011;18608;53.688;10.748;2022-11-20T03:36:07;12.83;;;8.47;;
32094;SDS011;18608;53.688;10.748;2022-11-20T03:38:34;12.87;;;8.07;;
32094;SDS011;18608;53.688;10.748;2022-11-20T03:41:01;14.73;;;8.03;;
32094;SDS011;18608;53.688;10.748;2022-11-20T03:43:28;11.70;;;7.50;;
32094;SDS011;18608;53.688;10.748;2022-11-20T03:45:54;9.60;;;6.37;;
32094;SDS011;18608;53.688;10.748;2022-11-20T03:48:20;9.33;;;7.20;;
32094;SDS011;18608;53.688;10.748;2022-11-20T03:50:46;10.40;;;7.43;;
32094;SDS011;18608;53.688;10.748;2022-11-20T03:53:13;10.73;;;7.37;;
32094;SDS011;18608;53.688;10.748;2022-11-20T03:55:39;17.27;;;8.80;;
32094;SDS011;18608;53.688;10.748;2022-11-20T03:58:05;17.03;;;8.27;;
32094;SDS011;18608;53.688;10.748;2022-11-20T04:00:30;12.43;;;8.50;;
32094;SDS011;18608;53.688;10.748;2022-11-20T04:02:59;17.70;;;8.27;;
32094;SDS011;18608;53.688;10.748;2022-11-20T04:05:26;16.20;;;8.93;;
32094;SDS011;18608;53.688;10.748;2022-11-20T04:07:51;12.97;;;8.07;;
32094;SDS011;18608;53.688;10.748;2022-11-20T04:10:17;15.43;;;8.73;;
32094;SDS011;18608;53.688;10.748;2022-11-20T04:12:43;14.47;;;9.20;;
32094;SDS011;18608;53.688;10.748;2022-11-20T04:15:09;13.50;;;9.27;;
32094;SDS011;18608;53.688;10.748;2022-11-20T04:17:34;13.17;;;9.60;;
32094;SDS011;18608;53.688;10.748;2022-11-20T04:20:00;15.20;;;9.80;;
32094;SDS011;18608;53.688;10.748;2022-11-20T04:22:27;14.90;;;7.47;;
32094;SDS011;18608;53.688;10.748;2022-11-20T04:24:52;16.03;;;8.70;;
32094;SDS011;18608;53.688;10.748;2022-11-20T04:27:18;17.57;;;10.70;;
32094;SDS011;18608;53.688;10.748;2022-11-20T04:29:44;18.30;;;9.53;;
32094;SDS011;18608;53.688;10.748;2022-11-20T04:32:09;12.03;;;8.43;;
32094;SDS011;18608;53.688;10.748;2022-11-20T04:34:35;15.67;;;8.40;;
32094;SDS011;18608;53.688;10.748;2022-11-20T04:37:01;18.50;;;9.40;;
32094;SDS011;18608;53.688;10.748;2022-11-20T04:39:27;21.33;;;9.20;;
32094;SDS011;18608;53.688;10.748;2022-11-20T04:41:52;15.53;;;9.30;;
32094;SDS011;18608;53.688;10.748;2022-11-20T04:44:38;15.13;;;8.37;;
32094;SDS011;18608;53.688;10.748;2022-11-20T04:47:04;11.27;;;7.93;;
32094;SDS011;18608;53.688;10.748;2022-11-20T04:49:30;12.37;;;8.10;;
32094;SDS011;18608;53.688;10.748;2022-11-20T04:51:56;13.67;;;7.73;;
32094;SDS011;18608;53.688;10.748;2022-11-20T04:54:22;14.70;;;8.30;;
32094;SDS011;18608;53.688;10.748;2022-11-20T04:56:49;15.60;;;8.57;;
32094;SDS011;18608;53.688;10.748;2022-11-20T04:59:15;15.30;;;8.80;;
32094;SDS011;18608;53.688;10.748;2022-11-20T05:01:41;11.03;;;8.50;;
32094;SDS011;18608;53.688;10.748;2022-11-20T05:04:07;12.10;;;8.73;;
32094;SDS011;18608;53.688;10.748;2022-11-20T05:06:33;14.83;;;9.73;;
32094;SDS011;18608;53.688;10.748;2022-11-20T05:08:58;14.43;;;8.20;;
32094;SDS011;18608;53.688;10.748;2022-11-20T05:11:26;15.33;;;8.73;;
32094;SDS011;18608;53.688;10.748;2022-11-20T05:13:53;13.17;;;8.07;;
32094;SDS011;18608;53.688;10.748;2022-11-20T05:16:20;13.47;;;7.90;;
32094;SDS011;18608;53.688;10.748;2022-11-20T05:18:47;11.83;;;7.27;;
32094;SDS011;18608;53.688;10.748;2022-11-20T05:21:14;12.40;;;8.23;;
32094;SDS011;18608;53.688;10.748;2022-11-20T05:23:40;14.20;;;7.67;;
32094;SDS011;18608;53.688;10.748;2022-11-20T05:26:07;15.17;;;9.10;;
32094;SDS011;18608;53.688;10.748;2022-11-20T05:28:38;13.10;;;8.40;;
32094;SDS011;18608;53.688;10.748;2022-11-20T05:31:14;11.80;;;9.30;;
32094;SDS011;18608;53.688;10.748;2022-11-20T05:33:46;13.73;;;8.97;;
32094;SDS011;18608;53.688;10.748;2022-11-20T05:36:12;12.00;;;8.00;;
32094;SDS011;18608;53.688;10.748;2022-11-20T05:38:39;12.53;;;8.40;;
32094;SDS011;18608;53.688;10.748;2022-11-20T05:41:10;11.33;;;8.30;;
32094;SDS011;18608;53.688;10.748;2022-11-20T05:43:38;11.53;;;7.07;;
32094;SDS011;18608;53.688;10.748;2022-11-20T05:46:06;8.27;;;6.50;;
32094;SDS011;18608;53.688;10.748;2022-11-20T05:48:34;15.83;;;8.47;;
32094;SDS011;18608;53.688;10.748;2022-11-20T05:51:01;14.40;;;7.23;;
32094;SDS011;18608;53.688;10.748;2022-11-20T05:53:28;13.37;;;7.90;;
32094;SDS011;18608;53.688;10.748;2022-11-20T05:55:57;13.00;;;7.80;;
32094;SDS011;18608;53.688;10.748;2022-11-20T05:58:24;18.00;;;8.10;;
32094;SDS011;18608;53.688;10.748;2022-11-20T06:00:50;10.03;;;7.53;;
32094;SDS011;18608;53.688;10.748;2022-11-20T06:03:16;12.20;;;5.67;;
32094;SDS011;18608;53.688;10.748;2022-11-20T06:05:41;11.00;;;7.37;;
32094;SDS011;18608;53.688;10.748;2022-11-20T06:08:07;10.27;;;7.03;;
32094;SDS011;18608;53.688;10.748;2022-11-20T06:10:33;11.33;;;6.80;;
32094;SDS011;18608;53.688;10.748;2022-11-20T06:12:58;11.77;;;8.70;;
32094;SDS011;18608;53.688;10.748;2022-11-20T06:15:24;13.97;;;7.07;;
32094;SDS011;18608;53.688;10.748;2022-11-20T06:17:53;12.53;;;7.50;;
32094;SDS011;18608;53.688;10.748;2022-11-20T06:20:20;7.47;;;6.37;;
32094;SDS011;18608;53.688;10.748;2022-11-20T06:22:46;9.17;;;7.27;;
32094;SDS011;18608;53.688;10.748;2022-11-20T06:25:12;14.17;;;6.67;;
32094;SDS011;18608;53.688;10.748;2022-11-20T06:27:38;13.23;;;7.97;;
32094;SDS011;18608;53.688;10.748;2022-11-20T06:30:04;8.60;;;6.73;;
32094;SDS011;18608;53.688;10.748;2022-11-20T06:32:30;10.23;;;6.70;;
32094;SDS011;18608;53.688;10.748;2022-11-20T06:34:55;11.07;;;7.40;;
32094;SDS011;18608;53.688;10.748;2022-11-20T06:37:21;15.50;;;7.20;;
32094;SDS011;18608;53.688;10.748;2022-11-20T06:39:47;9.40;;;7.33;;
32094;SDS011;18608;53.688;10.748;2022-11-20T06:42:12;8.00;;;6.30;;
32094;SDS011;18608;53.688;10.748;2022-11-20T06:44:38;10.63;;;6.47;;
32094;SDS011;18608;53.688;10.748;2022-11-20T06:47:04;9.50;;;6.40;;
32094;SDS011;18608;53.688;10.748;2022-11-20T06:49:29;9.43;;;7.30;;
32094;SDS011;18608;53.688;10.748;2022-11-20T06:51:55;10.03;;;6.20;;
32094;SDS011;18608;53.688;10.748;2022-11-20T06:54:20;15.73;;;7.63;;
32094;SDS011;18608;53.688;10.748;2022-11-20T06:56:47;10.73;;;7.13;;
32094;SDS011;18608;53.688;10.748;2022-11-20T06:59:13;8.73;;;7.00;;
32094;SDS011;18608;53.688;10.748;2022-11-20T07:01:38;10.77;;;6.90;;
32094;SDS011;18608;53.688;10.748;2022-11-20T07:04:04;10.70;;;7.00;;
32094;SDS011;18608;53.688;10.748;2022-11-20T07:06:30;11.30;;;6.90;;
32094;SDS011;18608;53.688;10.748;2022-11-20T07:08:56;10.50;;;6.97;;
32094;SDS011;18608;53.688;10.748;2022-11-20T07:11:22;10.73;;;6.40;;
32094;SDS011;18608;53.688;10.748;2022-11-20T07:13:48;7.70;;;6.60;;
32094;SDS011;18608;53.688;10.748;2022-11-20T07:16:14;9.93;;;6.60;;
32094;SDS011;18608;53.688;10.748;2022-11-20T07:18:40;12.47;;;7.70;;
32094;SDS011;18608;53.688;10.748;2022-11-20T07:21:07;8.30;;;6.10;;
32094;SDS011;18608;53.688;10.748;2022-11-20T07:23:34;7.67;;;6.00;;
32094;SDS011;18608;53.688;10.748;2022-11-20T07:26:04;11.40;;;7.00;;
32094;SDS011;18608;53.688;10.748;2022-11-20T07:28:31;8.17;;;5.20;;
32094;SDS011;18608;53.688;10.748;2022-11-20T07:30:57;9.73;;;6.93;;
32094;SDS011;18608;53.688;10.748;2022-11-20T07:33:23;8.87;;;6.47;;
32094;SDS011;18608;53.688;10.748;2022-11-20T07:35:48;8.30;;;5.97;;
32094;SDS011;18608;53.688;10.748;2022-11-20T07:38:14;8.00;;;6.60;;
32094;SDS011;18608;53.688;10.748;2022-11-20T07:40:40;13.83;;;7.47;;
32094;SDS011;18608;53.688;10.748;2022-11-20T07:43:05;11.27;;;7.73;;
32094;SDS011;18608;53.688;10.748;2022-11-20T07:45:31;6.67;;;6.03;;
32094;SDS011;18608;53.688;10.748;2022-11-20T07:47:57;10.80;;;6.83;;
32094;SDS011;18608;53.688;10.748;2022-11-20T07:50:23;10.90;;;6.77;;
32094;SDS011;18608;53.688;10.748;2022-11-20T07:52:49;11.47;;;5.90;;
32094;SDS011;18608;53.688;10.748;2022-11-20T07:55:14;9.73;;;6.50;;
32094;SDS011;18608;53.688;10.748;2022-11-20T07:57:40;8.23;;;6.10;;
32094;SDS011;18608;53.688;10.748;2022-11-20T08:00:07;8.00;;;5.70;;
32094;SDS011;18608;53.688;10.748;2022-11-20T08:02:38;10.17;;;6.27;;
32094;SDS011;18608;53.688;10.748;2022-11-20T08:05:07;14.00;;;6.03;;
32094;SDS011;18608;53.688;10.748;2022-11-20T08:07:35;10.60;;;6.03;;
32094;SDS011;18608;53.688;10.748;2022-11-20T08:10:05;12.83;;;7.77;;
32094;SDS011;18608;53.688;10.748;2022-11-20T08:12:31;10.23;;;6.20;;
32094;SDS011;18608;53.688;10.748;2022-11-20T08:15:15;11.60;;;8.33;;
32094;SDS011;18608;53.688;10.748;2022-11-20T08:17:41;10.63;;;7.63;;
32094;SDS011;18608;53.688;10.748;2022-11-20T08:20:07;11.20;;;7.00;;
32094;SDS011;18608;53.688;10.748;2022-11-20T08:22:33;25.50;;;8.23;;
32094;SDS011;18608;53.688;10.748;2022-11-20T08:24:59;11.10;;;6.93;;
32094;SDS011;18608;53.688;10.748;2022-11-20T08:27:25;13.80;;;7.90;;
32094;SDS011;18608;53.688;10.748;2022-11-20T08:29:50;10.77;;;6.87;;
32094;SDS011;18608;53.688;10.748;2022-11-20T08:32:16;10.20;;;6.90;;
32094;SDS011;18608;53.688;10.748;2022-11-20T08:34:41;8.87;;;6.50;;
32094;SDS011;18608;53.688;10.748;2022-11-20T08:37:07;20.43;;;8.33;;
32094;SDS011;18608;53.688;10.748;2022-11-20T08:39:33;9.03;;;6.73;;
32094;SDS011;18608;53.688;10.748;2022-11-20T08:41:58;11.70;;;7.50;;
32094;SDS011;18608;53.688;10.748;2022-11-20T08:44:24;10.27;;;7.30;;
32094;SDS011;18608;53.688;10.748;2022-11-20T08:46:50;8.50;;;5.93;;
32094;SDS011;18608;53.688;10.748;2022-11-20T08:49:16;9.80;;;7.80;;
32094;SDS011;18608;53.688;10.748;2022-11-20T08:51:42;10.53;;;7.13;;
32094;SDS011;18608;53.688;10.748;2022-11-20T08:54:08;10.37;;;6.80;;
32094;SDS011;18608;53.688;10.748;2022-11-20T08:56:34;11.80;;;6.80;;
32094;SDS011;18608;53.688;10.748;2022-11-20T08:59:00;14.53;;;7.80;;
32094;SDS011;18608;53.688;10.748;2022-11-20T09:01:26;8.53;;;6.60;;
32094;SDS011;18608;53.688;10.748;2022-11-20T09:03:57;9.27;;;7.67;;
32094;SDS011;18608;53.688;10.748;2022-11-20T09:06:24;13.33;;;8.60;;
32094;SDS011;18608;53.688;10.748;2022-11-20T09:08:53;10.83;;;6.30;;
32094;SDS011;18608;53.688;10.748;2022-11-20T09:11:19;10.00;;;7.27;;
32094;SDS011;18608;53.688;10.748;2022-11-20T09:13:45;8.67;;;6.87;;
32094;SDS011;18608;53.688;10.748;2022-11-20T09:16:11;12.13;;;7.70;;
32094;SDS011;18608;53.688;10.748;2022-11-20T09:18:37;11.90;;;7.37;;
32094;SDS011;18608;53.688;10.748;2022-11-20T09:21:09;10.73;;;7.70;;
32094;SDS011;18608;53.688;10.748;2022-11-20T09:23:36;10.60;;;8.00;;
32094;SDS011;18608;53.688;10.748;2022-11-20T09:26:09;10.70;;;6.57;;
32094;SDS011;18608;53.688;10.748;2022-11-20T09:28:36;12.87;;;7.83;;
32094;SDS011;18608;53.688;10.748;2022-11-20T09:31:21;11.87;;;7.70;;
32094;SDS011;18608;53.688;10.748;2022-11-20T09:33:48;12.10;;;8.40;;
32094;SDS011;18608;53.688;10.748;2022-11-20T09:36:14;12.07;;;7.30;;
32094;SDS011;18608;53.688;10.748;2022-11-20T09:38:41;15.87;;;8.00;;
32094;SDS011;18608;53.688;10.748;2022-11-20T09:41:06;11.83;;;8.43;;
32094;SDS011;18608;53.688;10.748;2022-11-20T09:46:38;10.43;;;7.43;;
32094;SDS011;18608;53.688;10.748;2022-11-20T09:52:05;11.97;;;7.33;;
32094;SDS011;18608;53.688;10.748;2022-11-20T09:54:37;12.20;;;8.10;;
32094;SDS011;18608;53.688;10.748;2022-11-20T09:57:09;11.43;;;8.40;;
32094;SDS011;18608;53.688;10.748;2022-11-20T10:00:00;11.87;;;8.47;;
32094;SDS011;18608;53.688;10.748;2022-11-20T10:02:29;12.47;;;9.23;;
32094;SDS011;18608;53.688;10.748;2022-11-20T10:05:02;13.17;;;7.97;;
32094;SDS011;18608;53.688;10.748;2022-11-20T10:11:11;10.20;;;8.10;;
32094;SDS011;18608;53.688;10.748;2022-11-20T10:16:03;9.70;;;8.47;;
32094;SDS011;18608;53.688;10.748;2022-11-20T10:18:42;11.10;;;7.40;;
32094;SDS011;18608;53.688;10.748;2022-11-20T10:21:24;11.53;;;7.93;;
32094;SDS011;18608;53.688;10.748;2022-11-20T10:24:23;12.90;;;7.87;;
32094;SDS011;18608;53.688;10.748;2022-11-20T10:32:36;13.03;;;7.17;;
32094;SDS011;18608;53.688;10.748;2022-11-20T10:35:15;9.30;;;6.63;;
32094;SDS011;18608;53.688;10.748;2022-11-20T10:37:46;8.90;;;6.83;;
32094;SDS011;18608;53.688;10.748;2022-11-20T10:40:22;6.47;;;4.93;;
32094;SDS011;18608;53.688;10.748;2022-11-20T10:45:38;7.13;;;6.07;;
32094;SDS011;18608;53.688;10.748;2022-11-20T10:50:44;7.60;;;6.73;;
32094;SDS011;18608;53.688;10.748;2022-11-20T10:55:54;6.07;;;5.00;;
32094;SDS011;18608;53.688;10.748;2022-11-20T11:01:19;7.80;;;6.40;;
32094;SDS011;18608;53.688;10.748;2022-11-20T11:03:46;8.13;;;6.00;;
32094;SDS011;18608;53.688;10.748;2022-11-20T11:08:58;6.23;;;5.40;;
32094;SDS011;18608;53.688;10.748;2022-11-20T11:11:32;8.47;;;5.93;;
32094;SDS011;18608;53.688;10.748;2022-11-20T11:14:05;9.27;;;5.80;;
32094;SDS011;18608;53.688;10.748;2022-11-20T11:16:54;6.50;;;5.77;;
32094;SDS011;18608;53.688;10.748;2022-11-20T11:19:22;7.37;;;5.87;;
32094;SDS011;18608;53.688;10.748;2022-11-20T11:21:49;6.43;;;5.40;;
32094;SDS011;18608;53.688;10.748;2022-11-20T11:24:24;6.87;;;5.17;;
32094;SDS011;18608;53.688;10.748;2022-11-20T11:27:01;6.13;;;5.03;;
32094;SDS011;18608;53.688;10.748;2022-11-20T11:29:30;6.83;;;5.23;;
32094;SDS011;18608;53.688;10.748;2022-11-20T11:32:03;9.37;;;5.67;;
32094;SDS011;18608;53.688;10.748;2022-11-20T11:34:33;7.53;;;6.37;;
32094;SDS011;18608;53.688;10.748;2022-11-20T11:36:59;6.57;;;5.70;;
32094;SDS011;18608;53.688;10.748;2022-11-20T11:39:28;5.20;;;4.70;;
32094;SDS011;18608;53.688;10.748;2022-11-20T11:41:55;5.13;;;4.63;;
32094;SDS011;18608;53.688;10.748;2022-11-20T11:44:30;5.37;;;4.73;;
32094;SDS011;18608;53.688;10.748;2022-11-20T11:52:46;4.83;;;4.40;;
32094;SDS011;18608;53.688;10.748;2022-11-20T12:00:56;5.70;;;4.63;;
32094;SDS011;18608;53.688;10.748;2022-11-20T12:03:39;5.30;;;4.77;;
32094;SDS011;18608;53.688;10.748;2022-11-20T12:06:14;4.63;;;4.23;;
32094;SDS011;18608;53.688;10.748;2022-11-20T12:08:46;5.13;;;4.63;;
32094;SDS011;18608;53.688;10.748;2022-11-20T12:14:30;5.37;;;4.40;;
32094;SDS011;18608;53.688;10.748;2022-11-20T12:17:01;4.20;;;3.90;;
32094;SDS011;18608;53.688;10.748;2022-11-20T12:19:27;4.33;;;3.93;;
32094;SDS011;18608;53.688;10.748;2022-11-20T12:30:32;3.90;;;3.60;;
32094;SDS011;18608;53.688;10.748;2022-11-20T12:36:16;4.30;;;3.63;;
32094;SDS011;18608;53.688;10.748;2022-11-20T12:53:31;2.77;;;2.47;;
32094;SDS011;18608;53.688;10.748;2022-11-20T12:56:17;5.03;;;4.47;;
32094;SDS011;18608;53.688;10.748;2022-11-20T13:02:05;3.10;;;2.80;;
32094;SDS011;18608;53.688;10.748;2022-11-20T13:05:43;4.30;;;2.70;;
32094;SDS011;18608;53.688;10.748;2022-11-20T13:07:38;3.63;;;3.10;;
32094;SDS011;18608;53.688;10.748;2022-11-20T13:10:05;4.83;;;4.33;;
32094;SDS011;18608;53.688;10.748;2022-11-20T13:16:04;8.93;;;6.60;;
32094;SDS011;18608;53.688;10.748;2022-11-20T13:18:38;8.40;;;6.03;;
32094;SDS011;18608;53.688;10.748;2022-11-20T13:29:32;4.47;;;4.07;;
32094;SDS011;18608;53.688;10.748;2022-11-20T13:32:18;3.33;;;3.00;;
32094;SDS011;18608;53.688;10.748;2022-11-20T13:34:56;5.73;;;4.60;;
32094;SDS011;18608;53.688;10.748;2022-11-20T13:37:28;4.77;;;3.87;;
32094;SDS011;18608;53.688;10.748;2022-11-20T13:40:04;3.87;;;3.43;;
32094;SDS011;18608;53.688;10.748;2022-11-20T13:42:33;3.47;;;2.90;;
32094;SDS011;18608;53.688;10.748;2022-11-20T13:45:09;2.80;;;2.33;;
32094;SDS011;18608;53.688;10.748;2022-11-20T13:47:49;3.77;;;3.50;;
32094;SDS011;18608;53.688;10.748;2022-11-20T13:50:16;4.10;;;3.70;;
32094;SDS011;18608;53.688;10.748;2022-11-20T13:57:39;4.43;;;4.13;;
32094;SDS011;18608;53.688;10.748;2022-11-20T14:00:27;5.90;;;4.63;;
32094;SDS011;18608;53.688;10.748;2022-11-20T14:05:31;4.30;;;3.90;;
32094;SDS011;18608;53.688;10.748;2022-11-20T14:08:02;3.33;;;3.13;;
32094;SDS011;18608;53.688;10.748;2022-11-20T14:10:30;3.60;;;3.30;;
32094;SDS011;18608;53.688;10.748;2022-11-20T14:12:56;4.80;;;4.40;;
32094;SDS011;18608;53.688;10.748;2022-11-20T14:15:27;9.33;;;4.20;;
32094;SDS011;18608;53.688;10.748;2022-11-20T14:17:55;4.80;;;3.60;;
32094;SDS011;18608;53.688;10.748;2022-11-20T14:20:21;4.97;;;4.47;;
32094;SDS011;18608;53.688;10.748;2022-11-20T14:22:53;4.97;;;4.57;;
32094;SDS011;18608;53.688;10.748;2022-11-20T14:27:58;5.10;;;4.60;;
32094;SDS011;18608;53.688;10.748;2022-11-20T14:30:27;4.53;;;4.10;;
32094;SDS011;18608;53.688;10.748;2022-11-20T14:32:55;4.70;;;4.30;;
32094;SDS011;18608;53.688;10.748;2022-11-20T14:35:26;5.50;;;4.77;;
32094;SDS011;18608;53.688;10.748;2022-11-20T14:37:53;4.10;;;3.70;;
32094;SDS011;18608;53.688;10.748;2022-11-20T14:42:49;9.57;;;7.60;;
32094;SDS011;18608;53.688;10.748;2022-11-20T14:45:15;8.80;;;7.90;;
32094;SDS011;18608;53.688;10.748;2022-11-20T14:47:41;9.97;;;8.80;;
32094;SDS011;18608;53.688;10.748;2022-11-20T14:50:12;10.90;;;7.17;;
32094;SDS011;18608;53.688;10.748;2022-11-20T14:53:00;14.63;;;10.00;;
32094;SDS011;18608;53.688;10.748;2022-11-20T14:55:37;28.07;;;14.47;;
32094;SDS011;18608;53.688;10.748;2022-11-20T14:58:04;22.87;;;19.90;;
32094;SDS011;18608;53.688;10.748;2022-11-20T15:00:32;24.37;;;21.77;;
32094;SDS011;18608;53.688;10.748;2022-11-20T15:03:00;111.93;;;52.30;;
32094;SDS011;18608;53.688;10.748;2022-11-20T15:05:37;101.00;;;49.07;;
32094;SDS011;18608;53.688;10.748;2022-11-20T15:08:13;30.53;;;19.50;;
32094;SDS011;18608;53.688;10.748;2022-11-20T15:10:45;14.90;;;12.00;;
32094;SDS011;18608;53.688;10.748;2022-11-20T15:13:13;16.97;;;13.00;;
32094;SDS011;18608;53.688;10.748;2022-11-20T15:15:49;10.97;;;9.20;;
32094;SDS011;18608;53.688;10.748;2022-11-20T15:18:18;9.37;;;8.67;;
32094;SDS011;18608;53.688;10.748;2022-11-20T15:20:58;9.90;;;8.80;;
32094;SDS011;18608;53.688;10.748;2022-11-20T15:23:28;4.93;;;4.40;;
32094;SDS011;18608;53.688;10.748;2022-11-20T15:25:54;5.47;;;4.40;;
32094;SDS011;18608;53.688;10.748;2022-11-20T15:28:33;4.83;;;4.43;;
32094;SDS011;18608;53.688;10.748;2022-11-20T15:31:05;5.90;;;4.27;;
32094;SDS011;18608;53.688;10.748;2022-11-20T15:33:32;7.33;;;5.77;;
32094;SDS011;18608;53.688;10.748;2022-11-20T15:35:59;3.87;;;3.50;;
32094;SDS011;18608;53.688;10.748;2022-11-20T15:38:25;5.00;;;4.60;;
32094;SDS011;18608;53.688;10.748;2022-11-20T15:40:50;5.33;;;4.27;;
32094;SDS011;18608;53.688;10.748;2022-11-20T15:43:16;4.80;;;4.30;;
32094;SDS011;18608;53.688;10.748;2022-11-20T15:45:43;4.80;;;4.30;;
32094;SDS011;18608;53.688;10.748;2022-11-20T15:48:12;6.53;;;5.07;;
32094;SDS011;18608;53.688;10.748;2022-11-20T15:50:49;11.23;;;9.13;;
32094;SDS011;18608;53.688;10.748;2022-11-20T15:53:28;15.00;;;8.60;;
32094;SDS011;18608;53.688;10.748;2022-11-20T15:55:54;8.00;;;7.13;;
32094;SDS011;18608;53.688;10.748;2022-11-20T15:58:19;9.93;;;7.70;;
32094;SDS011;18608;53.688;10.748;2022-11-20T16:00:47;10.47;;;7.40;;
32094;SDS011;18608;53.688;10.748;2022-11-20T16:03:14;11.47;;;8.07;;
32094;SDS011;18608;53.688;10.748;2022-11-20T16:05:41;10.20;;;7.37;;
32094;SDS011;18608;53.688;10.748;2022-11-20T16:08:07;27.87;;;14.37;;
32094;SDS011;18608;53.688;10.748;2022-11-20T16:10:32;9.60;;;7.77;;
32094;SDS011;18608;53.688;10.748;2022-11-20T16:12:58;9.00;;;7.03;;
32094;SDS011;18608;53.688;10.748;2022-11-20T16:15:44;8.70;;;7.40;;
32094;SDS011;18608;53.688;10.748;2022-11-20T16:18:21;10.93;;;6.57;;
32094;SDS011;18608;53.688;10.748;2022-11-20T16:20:51;7.10;;;5.50;;